Terminal Aerodrome Forecast
Issued by NWS

Home | Current Version | Previous Version | Text Only | Print | Product List | Glossary On
Versions: 1 2 3 4 5 6 7 8 9 10 11 12 13 14 15 16 17 18 19 20
000
FTUS43 KDMX 311939 AAB
TAFMCW
TAF AMD
KMCW 311939Z 3120/0118 27008KT 5SM SHRA BR VCTS SCT020 BKN050CB
      OVC100
     FM312100 28008KT P6SM SCT030 BKN070 OVC250
     FM010400 20004KT P6SM SCT250
     FM010800 VRB03KT 5SM BR FEW250
     FM011400 29009KT P6SM SCT040=

USA.gov is the U.S. government's official web portal to all federal, state and local government web resources and services.